Pelham, Massachusetts
Current Conditions -  °F | °C
As of 12:58 PM on Friday 31 Oct 2014 (Local Time) from KCEF Reporting Station
Overcast Overcast  
Wind Chill: 51°   Ceiling: 5500
Heat Index: 51°   Visibility: 10mi
Dew Point: 38°   Wind: 6mph
Humidity: 60%   Direction: 40°NE
Pressure: 29.98"   Gusts: NA
Location:  42.3773°N, 72.4671°W
Report Text: KCEF 311658Z AUTO 04005KT 10SM OVC055 11/03 A2998 RMK AO2 SLP160 T01070033
Loading
Personal Weather Stations






























Interactive Weather Map
Tropical Storm Tracking
New forecast layout! Learn more

10-Day Weather Forecast

Advertisements
Track Severe Weather on mobile